createdAt,value
2023-05-05T00:01:36.008Z,100.00
2023-05-05T00:05:50.026Z,100.00
2023-05-05T00:10:02.701Z,100.00
2023-05-05T00:14:25.189Z,100.00
2023-05-05T00:18:38.297Z,100.00
2023-05-05T00:22:50.763Z,100.00
2023-05-05T00:27:13.266Z,100.00
2023-05-05T00:31:25.771Z,100.00
2023-05-05T00:35:38.251Z,100.00
2023-05-05T00:39:50.748Z,100.00
2023-05-05T00:44:03.558Z,100.00
2023-05-05T00:48:17.787Z,100.00
2023-05-05T00:52:30.782Z,100.00
2023-05-05T00:56:43.344Z,100.00
2023-05-05T01:01:00.914Z,100.00
2023-05-05T01:05:15.822Z,100.00
2023-05-05T01:10:15.303Z,100.00
2023-05-05T01:14:40.571Z,100.00
2023-05-05T01:19:17.456Z,100.00
2023-05-05T01:24:16.652Z,100.00
2023-05-05T01:29:02.297Z,100.00
2023-05-05T01:33:21.087Z,100.00
2023-05-05T01:37:46.816Z,100.00
2023-05-05T01:42:15.808Z,100.00
2023-05-05T01:46:28.770Z,100.00
2023-05-05T01:50:42.785Z,100.00
2023-05-05T01:54:56.712Z,100.00
2023-05-05T01:59:11.064Z,100.00
2023-05-05T02:03:24.636Z,100.00
2023-05-05T02:07:37.707Z,100.00
2023-05-05T02:11:50.269Z,100.00
2023-05-05T02:16:05.813Z,100.00
2023-05-05T02:20:19.537Z,100.00
2023-05-05T02:24:32.054Z,100.00
2023-05-05T02:29:08.843Z,100.00
2023-05-05T02:33:23.736Z,100.00
2023-05-05T02:37:37.168Z,100.00
2023-05-05T02:41:52.980Z,100.00
2023-05-05T02:46:05.481Z,100.00
2023-05-05T02:50:18.115Z,100.00
2023-05-05T02:54:33.104Z,100.00
2023-05-05T02:59:32.062Z,100.00
2023-05-05T03:03:54.602Z,100.00
2023-05-05T03:08:18.304Z,100.00
2023-05-05T03:12:56.194Z,100.00
2023-05-05T03:17:12.563Z,100.00
2023-05-05T03:21:25.584Z,100.00
2023-05-05T03:25:51.162Z,100.00
2023-05-05T03:30:03.671Z,100.00
2023-05-05T03:34:16.311Z,100.00
2023-05-05T03:38:28.768Z,100.00
2023-05-05T03:42:41.545Z,100.00
2023-05-05T03:46:54.016Z,100.00
2023-05-05T03:51:06.682Z,100.00
2023-05-05T03:55:19.256Z,100.00
2023-05-05T03:59:32.053Z,100.00
2023-05-05T04:03:54.583Z,100.00
2023-05-05T04:08:08.934Z,100.00
2023-05-05T04:12:21.689Z,100.00
2023-05-05T04:16:35.826Z,100.00
2023-05-05T04:20:48.506Z,100.00
2023-05-05T04:25:01.100Z,100.00
2023-05-05T04:29:14.040Z,100.00
2023-05-05T04:33:26.892Z,100.00
2023-05-05T04:37:39.341Z,100.00
2023-05-05T04:41:51.762Z,100.00
2023-05-05T04:46:06.754Z,100.00
2023-05-05T04:50:19.289Z,100.00
2023-05-05T04:54:41.924Z,100.00
2023-05-05T04:58:54.423Z,100.00
2023-05-05T05:03:08.960Z,100.00
2023-05-05T05:07:31.753Z,100.00
2023-05-05T05:11:44.154Z,100.00
2023-05-05T05:15:56.690Z,100.00
2023-05-05T05:20:10.024Z,100.00
2023-05-05T05:24:22.850Z,100.00
2023-05-05T05:28:35.647Z,100.00
2023-05-05T05:32:48.118Z,100.00
2023-05-05T05:37:00.725Z,100.00
2023-05-05T05:41:23.170Z,100.00
2023-05-05T05:45:35.650Z,100.00
2023-05-05T05:49:58.081Z,100.00
2023-05-05T05:54:20.545Z,100.00
2023-05-05T05:58:33.058Z,100.00
2023-05-05T06:02:45.787Z,100.00
2023-05-05T06:06:58.395Z,100.00
2023-05-05T06:11:10.841Z,100.00
2023-05-05T06:15:23.317Z,100.00
2023-05-05T06:19:35.960Z,100.00
2023-05-05T06:23:48.632Z,100.00
2023-05-05T06:28:01.372Z,100.00
2023-05-05T06:32:14.835Z,100.00
2023-05-05T06:36:27.317Z,100.00
2023-05-05T06:40:39.832Z,100.00
2023-05-05T06:45:02.333Z,100.00
2023-05-05T06:49:14.818Z,100.00
2023-05-05T06:53:27.261Z,100.00
2023-05-05T06:57:39.736Z,100.00
2023-05-05T07:01:52.635Z,100.00
2023-05-05T07:06:05.474Z,100.00
2023-05-05T07:10:18.173Z,100.00
2023-05-05T07:14:40.711Z,100.00
2023-05-05T07:18:53.276Z,100.00
2023-05-05T07:23:06.070Z,100.00
2023-05-05T07:27:18.583Z,100.00
2023-05-05T07:31:31.243Z,100.00
2023-05-05T07:35:43.749Z,100.00
2023-05-05T07:39:56.411Z,100.00
2023-05-05T07:44:09.420Z,100.00
2023-05-05T07:48:22.148Z,100.00
2023-05-05T07:52:47.920Z,100.00
2023-05-05T07:57:04.282Z,100.00
2023-05-05T08:01:16.777Z,100.00
2023-05-05T08:05:39.347Z,100.00
2023-05-05T08:09:52.458Z,100.00
2023-05-05T08:14:04.880Z,93.15
2023-05-05T08:18:17.285Z,86.47
2023-05-05T08:22:30.275Z,82.75
2023-05-05T08:26:42.826Z,75.66
2023-05-05T08:30:55.371Z,80.78
2023-05-05T08:35:08.623Z,69.98
2023-05-05T08:39:21.516Z,69.35
2023-05-05T08:43:35.670Z,70.98
2023-05-05T08:47:48.247Z,77.40
2023-05-05T08:52:04.064Z,71.45
2023-05-05T08:56:16.844Z,73.07
2023-05-05T09:00:29.691Z,72.87
2023-05-05T09:04:43.195Z,69.42
2023-05-05T09:08:58.925Z,60.37
2023-05-05T09:13:12.224Z,68.26
2023-05-05T09:17:26.259Z,63.41
2023-05-05T09:21:49.518Z,64.78
2023-05-05T09:26:09.592Z,62.43
2023-05-05T09:30:27.710Z,66.36
2023-05-05T09:34:40.322Z,67.49
2023-05-05T09:39:07.131Z,66.14
2023-05-05T09:43:22.700Z,67.51
2023-05-05T09:47:37.091Z,66.92
2023-05-05T09:51:59.617Z,64.43
2023-05-05T09:56:12.277Z,59.29
2023-05-05T10:00:39.429Z,63.19
2023-05-05T10:05:06.070Z,58.93
2023-05-05T10:09:18.614Z,66.39
2023-05-05T10:13:31.729Z,57.72
2023-05-05T10:22:09.172Z,59.12
2023-05-05T10:26:24.059Z,59.39
2023-05-05T10:30:44.406Z,53.64
2023-05-05T10:35:04.516Z,63.06
2023-05-05T10:39:27.545Z,84.48
2023-05-05T10:43:40.842Z,71.17
2023-05-05T10:47:57.912Z,67.29
2023-05-05T10:52:27.020Z,77.70
2023-05-05T10:56:41.983Z,77.52
2023-05-05T11:00:54.517Z,64.22
2023-05-05T11:05:10.902Z,57.41
2023-05-05T11:09:33.913Z,55.42
2023-05-05T11:13:46.375Z,49.67
2023-05-05T11:18:06.673Z,52.29
2023-05-05T11:22:20.768Z,50.30
2023-05-05T11:26:53.530Z,61.18
2023-05-05T11:31:05.898Z,54.12
2023-05-05T11:35:55.333Z,52.56
2023-05-05T11:40:22.781Z,52.37
2023-05-05T11:44:36.519Z,55.13
2023-05-05T11:48:50.787Z,55.47
2023-05-05T11:53:03.417Z,53.42
2023-05-05T11:57:21.730Z,51.40
2023-05-05T12:01:44.346Z,48.30
2023-05-05T12:05:56.788Z,40.26
2023-05-05T12:10:09.853Z,38.61
2023-05-05T12:14:24.053Z,43.67
2023-05-05T12:18:36.846Z,47.73
2023-05-05T12:22:49.340Z,48.15
2023-05-05T12:27:12.416Z,48.26
2023-05-05T12:31:38.931Z,49.18
2023-05-05T12:35:51.871Z,46.90
2023-05-05T12:40:06.985Z,47.76
2023-05-05T12:44:19.499Z,43.13
2023-05-05T12:48:32.462Z,47.10
2023-05-05T12:52:46.319Z,49.11
2023-05-05T12:56:59.385Z,50.59
2023-05-05T13:01:11.991Z,47.67
2023-05-05T13:05:36.946Z,47.74
2023-05-05T13:09:51.307Z,41.95
2023-05-05T13:14:04.517Z,40.73
2023-05-05T13:18:16.997Z,46.47
2023-05-05T13:22:29.480Z,42.41
2023-05-05T13:26:41.963Z,37.74
2023-05-05T13:30:55.269Z,41.43
2023-05-05T13:35:08.748Z,45.42
2023-05-05T13:39:21.602Z,49.33
2023-05-05T13:43:35.704Z,49.28
2023-05-05T13:47:48.818Z,49.09
2023-05-05T13:52:01.290Z,44.13
2023-05-05T13:56:26.949Z,42.11
2023-05-05T14:00:39.486Z,42.55
2023-05-05T14:04:51.905Z,44.22
2023-05-05T14:09:12.119Z,45.79
2023-05-05T14:13:24.589Z,44.46
2023-05-05T14:17:37.139Z,41.76
2023-05-05T14:21:49.610Z,41.83
2023-05-05T14:26:02.227Z,39.77
2023-05-05T14:30:15.059Z,43.48
2023-05-05T14:34:27.570Z,41.98
2023-05-05T14:38:40.275Z,42.34
2023-05-05T14:42:52.900Z,45.69
2023-05-05T14:47:05.467Z,46.63
2023-05-05T14:51:17.985Z,45.47
2023-05-05T14:55:30.432Z,45.75
2023-05-05T14:59:53.894Z,44.95
2023-05-05T15:04:06.597Z,45.08
2023-05-05T15:08:22.797Z,44.07
2023-05-05T15:12:35.354Z,46.71
2023-05-05T15:16:48.502Z,52.02
2023-05-05T15:21:00.979Z,58.27
2023-05-05T15:25:15.568Z,56.05
2023-05-05T15:29:29.067Z,56.72
2023-05-05T15:33:50.294Z,55.71
2023-05-05T15:38:03.738Z,57.64
2023-05-05T15:42:16.216Z,58.68
2023-05-05T15:46:38.743Z,57.34
2023-05-05T15:50:53.938Z,55.94
2023-05-05T15:55:07.616Z,53.01
2023-05-05T15:59:27.632Z,50.41
2023-05-05T16:03:40.837Z,49.84
2023-05-05T16:07:54.456Z,52.75
2023-05-05T16:12:07.020Z,55.08
2023-05-05T16:16:30.101Z,50.42
2023-05-05T16:22:05.205Z,51.71
2023-05-05T16:26:17.840Z,51.38
2023-05-05T16:30:30.321Z,52.87
2023-05-05T16:34:42.772Z,51.84
2023-05-05T16:38:55.798Z,52.29
2023-05-05T16:43:08.239Z,54.37
2023-05-05T16:47:20.693Z,64.45
2023-05-05T16:51:33.158Z,66.54
2023-05-05T16:55:45.665Z,71.33
2023-05-05T17:00:10.100Z,76.70
2023-05-05T17:04:32.548Z,76.03
2023-05-05T17:08:45.355Z,81.39
2023-05-05T17:12:57.864Z,85.00
2023-05-05T17:17:10.424Z,87.19
2023-05-05T17:21:22.882Z,94.25
2023-05-05T17:25:36.099Z,90.32
2023-05-05T17:29:58.691Z,93.65
2023-05-05T17:34:11.943Z,94.01
2023-05-05T17:38:34.485Z,100.00
2023-05-05T17:42:46.900Z,100.00
2023-05-05T17:47:04.985Z,100.00
2023-05-05T17:51:17.450Z,100.00
2023-05-05T17:55:29.918Z,100.00
2023-05-05T17:59:42.383Z,100.00
2023-05-05T18:03:54.929Z,100.00
2023-05-05T18:08:07.753Z,100.00
2023-05-05T18:12:21.161Z,100.00
2023-05-05T18:16:33.684Z,100.00
2023-05-05T18:20:46.148Z,100.00
2023-05-05T18:25:00.504Z,100.00
2023-05-05T18:29:13.121Z,100.00
2023-05-05T18:33:25.627Z,100.00
2023-05-05T18:37:38.123Z,100.00
2023-05-05T18:41:50.869Z,100.00
2023-05-05T18:46:03.705Z,100.00
2023-05-05T18:50:16.611Z,100.00
2023-05-05T18:54:29.748Z,100.00
2023-05-05T18:58:42.265Z,100.00
2023-05-05T19:02:55.212Z,100.00
2023-05-05T19:07:08.145Z,100.00
2023-05-05T19:11:30.669Z,100.00
2023-05-05T19:15:43.200Z,100.00
2023-05-05T19:19:55.615Z,100.00
2023-05-05T19:24:10.158Z,100.00
2023-05-05T19:28:22.764Z,100.00
2023-05-05T19:32:35.464Z,100.00
2023-05-05T19:36:48.547Z,100.00
2023-05-05T19:41:01.369Z,100.00
2023-05-05T19:45:13.823Z,100.00
2023-05-05T19:49:26.290Z,100.00
2023-05-05T19:53:40.799Z,100.00
2023-05-05T19:57:53.316Z,100.00
2023-05-05T20:02:05.781Z,100.00
2023-05-05T20:06:18.218Z,100.00
2023-05-05T20:10:30.669Z,100.00
2023-05-05T20:14:43.389Z,100.00
2023-05-05T20:18:55.871Z,100.00
2023-05-05T20:23:08.467Z,100.00
2023-05-05T20:27:21.716Z,100.00
2023-05-05T20:31:35.648Z,100.00
2023-05-05T20:35:51.830Z,100.00
2023-05-05T20:40:04.632Z,100.00
2023-05-05T20:44:17.384Z,100.00
2023-05-05T20:48:30.594Z,100.00
2023-05-05T20:52:53.337Z,100.00
2023-05-05T20:57:10.143Z,100.00
2023-05-05T21:01:22.543Z,100.00
2023-05-05T21:05:36.680Z,100.00
2023-05-05T21:09:49.173Z,100.00
2023-05-05T21:14:01.576Z,100.00
2023-05-05T21:18:26.503Z,100.00
2023-05-05T21:22:39.000Z,100.00
2023-05-05T21:26:51.420Z,100.00
2023-05-05T21:31:21.356Z,100.00
2023-05-05T21:35:34.821Z,100.00
2023-05-05T21:39:47.281Z,100.00
2023-05-05T21:44:00.129Z,100.00
2023-05-05T21:48:12.592Z,100.00
2023-05-05T21:52:28.955Z,100.00
2023-05-05T21:56:41.749Z,100.00
2023-05-05T22:00:54.240Z,100.00
2023-05-05T22:05:16.714Z,100.00
2023-05-05T22:09:29.188Z,100.00
2023-05-05T22:13:42.468Z,100.00
2023-05-05T22:17:55.029Z,100.00
2023-05-05T22:22:07.788Z,100.00
2023-05-05T22:26:20.239Z,100.00
2023-05-05T22:30:32.768Z,100.00
2023-05-05T22:34:45.670Z,100.00
2023-05-05T22:38:58.139Z,100.00
2023-05-05T22:43:10.622Z,100.00
2023-05-05T22:47:23.112Z,100.00
2023-05-05T22:51:35.962Z,100.00
2023-05-05T22:55:59.272Z,100.00
2023-05-05T23:00:12.602Z,100.00
2023-05-05T23:04:25.139Z,100.00
2023-05-05T23:08:37.663Z,100.00
2023-05-05T23:12:58.325Z,100.00
2023-05-05T23:17:11.265Z,100.00
2023-05-05T23:21:23.683Z,100.00
2023-05-05T23:25:36.390Z,100.00
2023-05-05T23:29:48.836Z,100.00
2023-05-05T23:34:01.291Z,100.00
2023-05-05T23:38:13.748Z,100.00
2023-05-05T23:42:26.171Z,100.00
2023-05-05T23:46:38.684Z,100.00
2023-05-05T23:50:51.215Z,100.00
2023-05-05T23:55:03.743Z,100.00
2023-05-05T23:59:16.935Z,100.00
